Time;durP1;ratioP1;P1;durP2;ratioP2;P2;SDS_P1;SDS_P2;PMS_P1;PMS_P2;Temp;Humidity;BMP_temperature;BMP_pressure;BME280_temperature;BME280_humidity;BME280_pressure;Samples;Min_cycle;Max_cycle;Signal;HPM_P1;HPM_P2
2021/04/09 00:05:51;;;;;;;9.00;3.10;;;15.40;52.80;;;;;;20746069;28;20133;-61
2021/04/09 00:15:51;;;;;;;9.13;3.13;;;15.30;53.40;;;;;;20747375;28;20022;-60
2021/04/09 00:25:52;;;;;;;15.07;3.58;;;15.20;53.70;;;;;;20745306;28;20054;-60
2021/04/09 00:35:53;;;;;;;8.90;3.42;;;14.90;54.20;;;;;;20746972;28;20107;-60
2021/04/09 00:45:54;;;;;;;12.10;3.03;;;14.80;54.50;;;;;;20757987;28;20038;-62
2021/04/09 00:55:55;;;;;;;8.52;3.47;;;14.70;55.00;;;;;;20760234;28;20042;-59
2021/04/09 01:05:56;;;;;;;7.53;3.05;;;14.50;55.30;;;;;;20759809;28;20038;-61
2021/04/09 01:15:58;;;;;;;7.95;3.15;;;14.50;55.50;;;;;;20759260;28;20022;-61
2021/04/09 01:26:07;;;;;;;7.97;3.47;;;14.40;55.80;;;;;;20758014;28;20034;-60
2021/04/09 01:36:13;;;;;;;10.32;3.80;;;14.40;56.10;;;;;;20755990;28;20030;-61
2021/04/09 01:46:15;;;;;;;10.65;4.55;;;14.30;56.80;;;;;;20756330;28;20026;-60
2021/04/09 01:56:17;;;;;;;9.88;4.32;;;14.20;56.70;;;;;;20754179;28;20533;-61
2021/04/09 02:06:20;;;;;;;14.85;4.28;;;14.10;56.90;;;;;;20754987;28;20038;-62
2021/04/09 02:16:22;;;;;;;10.15;4.40;;;14.10;56.70;;;;;;20754313;28;20034;-62
2021/04/09 02:26:23;;;;;;;9.38;4.32;;;14.00;56.80;;;;;;20753271;28;20065;-61
2021/04/09 02:36:27;;;;;;;11.80;4.50;;;14.00;57.00;;;;;;20752594;28;20378;-60
2021/04/09 02:46:39;;;;;;;;;;;14.00;56.90;;;;;;20752617;28;20045;-61
2021/04/09 02:56:40;;;;;;;13.07;4.68;;;13.80;57.20;;;;;;20751170;28;20365;-61
2021/04/09 03:06:43;;;;;;;10.38;3.90;;;13.80;57.10;;;;;;20750350;28;20030;-62
2021/04/09 03:16:48;;;;;;;9.90;4.22;;;13.80;57.70;;;;;;20750548;28;20123;-61
2021/04/09 03:26:49;;;;;;;11.30;4.72;;;13.80;58.30;;;;;;20749862;28;20114;-62
2021/04/09 03:36:50;;;;;;;12.25;4.38;;;13.70;59.10;;;;;;20749032;28;20050;-60
2021/04/09 03:46:50;;;;;;;12.52;4.65;;;13.70;58.80;;;;;;20748828;28;20054;-62
2021/04/09 03:56:51;;;;;;;10.82;4.40;;;13.60;58.10;;;;;;20747863;28;20080;-60
2021/04/09 04:06:52;;;;;;;8.15;4.03;;;13.60;57.80;;;;;;20747877;28;20034;-60
2021/04/09 04:16:53;;;;;;;10.43;4.65;;;13.50;57.60;;;;;;20753031;28;20437;-59
2021/04/09 04:26:54;;;;;;;9.18;4.43;;;13.40;57.60;;;;;;20763186;28;20022;-60
2021/04/09 04:36:54;;;;;;;9.88;4.85;;;13.30;57.60;;;;;;20762464;28;20040;-59
2021/04/09 04:46:55;;;;;;;8.90;4.38;;;13.30;58.40;;;;;;20761103;28;20474;-60
2021/04/09 04:56:56;;;;;;;6.35;4.07;;;13.30;58.70;;;;;;20760246;28;20128;-60
2021/04/09 05:06:57;;;;;;;11.48;4.30;;;13.20;58.90;;;;;;20759779;28;20061;-61
2021/04/09 05:16:57;;;;;;;8.80;4.57;;;13.20;58.80;;;;;;20759171;28;20017;-60
2021/04/09 05:26:58;;;;;;;13.15;4.40;;;13.20;58.90;;;;;;20758335;28;20030;-60
2021/04/09 05:36:59;;;;;;;10.45;4.32;;;13.20;59.20;;;;;;20757383;28;20133;-60
2021/04/09 05:47:02;;;;;;;8.35;4.18;;;13.20;59.70;;;;;;20756852;28;20030;-60
2021/04/09 05:57:03;;;;;;;14.45;6.15;;;13.10;60.60;;;;;;20755324;28;20461;-60
2021/04/09 06:07:04;;;;;;;14.48;6.07;;;12.80;63.90;;;;;;20754263;28;20464;-60
2021/04/09 06:17:05;;;;;;;12.02;5.55;;;12.70;65.60;;;;;;20754787;28;20075;-60
2021/04/09 06:27:07;;;;;;;12.60;5.95;;;12.60;66.70;;;;;;20754432;28;20033;-62
2021/04/09 06:37:08;;;;;;;11.35;7.00;;;12.40;68.90;;;;;;20772651;28;20545;-59
2021/04/09 06:47:08;;;;;;;12.32;8.32;;;12.30;70.20;;;;;;20751173;28;20038;-61
2021/04/09 06:57:13;;;;;;;8.57;5.70;;;12.30;70.50;;;;;;20751126;28;20072;-60
2021/04/09 07:07:16;;;;;;;17.97;7.70;;;12.20;70.20;;;;;;20750570;28;20394;-60
2021/04/09 07:17:27;;;;;;;9.45;6.72;;;12.10;71.00;;;;;;20749281;28;20493;-59
2021/04/09 07:27:27;;;;;;;14.20;8.38;;;12.10;71.70;;;;;;20749458;28;20474;-61
2021/04/09 07:37:30;;;;;;;12.27;7.53;;;12.10;72.70;;;;;;20748111;28;20394;-61
2021/04/09 07:47:31;;;;;;;35.85;27.42;;;12.10;72.10;;;;;;20748574;28;20112;-60
2021/04/09 07:57:32;;;;;;;19.15;9.70;;;12.10;72.30;;;;;;20762535;28;20081;-61
2021/04/09 08:07:36;;;;;;;13.70;8.30;;;11.90;72.80;;;;;;20764017;28;20030;-60
2021/04/09 08:17:37;;;;;;;13.93;9.43;;;11.90;73.00;;;;;;20763146;28;20381;-61
2021/04/09 08:27:39;;;;;;;19.48;10.80;;;11.80;73.30;;;;;;20762518;28;20434;-60
2021/04/09 08:37:41;;;;;;;19.38;10.65;;;11.70;74.10;;;;;;20761472;28;20038;-60
2021/04/09 08:47:44;;;;;;;16.13;11.00;;;11.70;74.50;;;;;;20760388;28;20129;-60
2021/04/09 08:57:46;;;;;;;10.35;7.18;;;11.70;74.60;;;;;;20760061;28;20042;-58
2021/04/09 09:07:49;;;;;;;11.05;8.10;;;11.70;73.10;;;;;;20758208;28;20030;-60
2021/04/09 09:17:50;;;;;;;8.07;6.15;;;11.90;73.70;;;;;;20758885;28;20038;-60
2021/04/09 09:27:52;;;;;;;9.60;7.75;;;11.80;73.80;;;;;;20757421;28;20041;-60
2021/04/09 09:37:53;;;;;;;7.85;5.85;;;12.00;74.30;;;;;;20756860;28;20034;-56
2021/04/09 09:48:14;;;;;;;9.48;3.70;;;12.20;72.60;;;;;;20756241;28;20429;-57
2021/04/09 09:58:19;;;;;;;7.25;4.75;;;12.40;71.10;;;;;;20748276;28;20453;-57
2021/04/09 10:08:22;;;;;;;5.20;3.60;;;13.50;65.70;;;;;;20749470;28;20022;-57
2021/04/09 10:18:23;;;;;;;4.72;3.05;;;14.90;61.80;;;;;;20744872;28;20068;-55
2021/04/09 10:28:23;;;;;;;7.75;3.53;;;15.70;58.20;;;;;;20746570;28;20026;-58
2021/04/09 10:38:28;;;;;;;5.78;3.08;;;15.70;55.30;;;;;;20748728;28;20034;-57
2021/04/09 10:48:29;;;;;;;5.90;2.95;;;16.20;53.70;;;;;;20746723;28;20018;-60
2021/04/09 10:58:31;;;;;;;6.82;3.30;;;15.90;53.60;;;;;;20727376;28;20041;-59
2021/04/09 11:08:38;;;;;;;5.68;3.17;;;16.10;53.30;;;;;;20716138;28;20359;-58
2021/04/09 11:18:49;;;;;;;10.15;4.93;;;16.40;52.70;;;;;;20746152;28;20041;-62
2021/04/09 11:28:52;;;;;;;11.50;5.05;;;16.60;53.90;;;;;;20671642;28;20507;-62
2021/04/09 11:39:20;;;;;;;13.55;4.72;;;16.20;53.80;;;;;;20667218;28;20125;-60
2021/04/09 11:49:29;;;;;;;7.70;4.22;;;15.40;54.80;;;;;;20662438;28;20039;-62
2021/04/09 11:59:36;;;;;;;11.30;4.70;;;14.90;56.30;;;;;;20715000;28;20054;-62
2021/04/09 12:09:37;;;;;;;7.95;4.35;;;14.50;58.10;;;;;;20747077;28;20034;-61
2021/04/09 12:19:38;;;;;;;10.35;4.32;;;14.20;58.20;;;;;;20748921;28;20034;-64
2021/04/09 12:29:39;;;;;;;9.65;4.28;;;14.40;57.60;;;;;;20746477;28;20030;-59
2021/04/09 12:39:40;;;;;;;7.43;4.50;;;14.80;56.20;;;;;;20753909;28;20064;-61
2021/04/09 12:49:40;;;;;;;10.32;5.10;;;14.70;57.00;;;;;;20760658;28;20163;-62
2021/04/09 12:59:41;;;;;;;7.32;4.70;;;15.00;56.30;;;;;;20759329;28;20057;-61
2021/04/09 13:09:42;;;;;;;12.25;6.40;;;15.00;56.00;;;;;;20759010;28;20022;-61
2021/04/09 13:19:44;;;;;;;15.52;10.85;;;14.90;56.30;;;;;;20756460;28;20093;-62
2021/04/09 13:29:45;;;;;;;19.67;12.52;;;15.00;56.30;;;;;;20757982;28;20025;-62
2021/04/09 13:39:46;;;;;;;16.33;13.18;;;14.90;56.50;;;;;;20757149;28;20038;-61
2021/04/09 13:49:47;;;;;;;13.10;11.45;;;14.90;56.30;;;;;;20755948;28;20116;-62
2021/04/09 13:59:48;;;;;;;9.80;7.50;;;14.80;56.90;;;;;;20754870;28;20046;-61
2021/04/09 14:09:48;;;;;;;9.70;7.47;;;14.80;57.40;;;;;;20754845;28;20037;-61
2021/04/09 14:19:49;;;;;;;8.70;5.65;;;15.00;56.70;;;;;;20755194;28;20397;-61
2021/04/09 14:29:51;;;;;;;8.98;4.85;;;15.10;56.90;;;;;;20756933;28;20367;-62
2021/04/09 14:39:51;;;;;;;7.82;5.00;;;15.30;56.90;;;;;;20742365;28;20064;-63
2021/04/09 14:49:54;;;;;;;12.10;5.50;;;15.40;56.20;;;;;;20753929;28;20026;-61
2021/04/09 14:59:55;;;;;;;12.70;6.53;;;15.20;56.90;;;;;;20750274;28;20042;-61
2021/04/09 15:09:56;;;;;;;10.77;5.88;;;15.20;57.30;;;;;;20752309;28;20030;-61
2021/04/09 15:19:57;;;;;;;16.63;6.82;;;15.30;57.40;;;;;;20751785;28;20045;-62
2021/04/09 15:29:57;;;;;;;10.98;5.90;;;15.40;57.70;;;;;;20749212;28;20081;-61
2021/04/09 15:39:59;;;;;;;10.70;6.47;;;15.40;57.70;;;;;;20750540;28;20038;-62
2021/04/09 15:50:00;;;;;;;8.70;6.18;;;15.60;56.90;;;;;;20750393;28;20087;-60
2021/04/09 16:00:02;;;;;;;9.80;6.13;;;15.70;56.50;;;;;;20750741;28;20070;-61
2021/04/09 16:10:04;;;;;;;7.95;5.70;;;15.70;56.40;;;;;;20752464;28;20057;-62
2021/04/09 16:20:07;;;;;;;9.93;7.68;;;15.80;56.10;;;;;;20766509;28;20056;-61
2021/04/09 16:30:08;;;;;;;11.50;7.80;;;15.80;55.90;;;;;;20763729;28;20030;-61
2021/04/09 16:40:12;;;;;;;11.15;6.82;;;15.70;56.00;;;;;;20763091;28;20042;-60
2021/04/09 16:50:13;;;;;;;10.97;7.50;;;15.80;56.00;;;;;;20762576;28;20470;-60
2021/04/09 17:00:14;;;;;;;11.52;7.13;;;15.70;56.40;;;;;;20760813;28;20409;-61
2021/04/09 17:10:16;;;;;;;10.77;6.25;;;15.70;56.30;;;;;;20760193;28;20038;-61
2021/04/09 17:20:19;;;;;;;9.13;6.20;;;15.70;56.60;;;;;;20759784;28;20037;-61
2021/04/09 17:30:20;;;;;;;7.15;5.72;;;15.60;56.80;;;;;;20758823;28;20048;-62
2021/04/09 17:40:21;;;;;;;10.77;6.22;;;15.60;57.00;;;;;;20758362;28;20033;-62
2021/04/09 17:50:22;;;;;;;9.02;6.32;;;15.40;57.50;;;;;;20758514;28;20076;-62
2021/04/09 18:00:23;;;;;;;11.30;6.25;;;15.30;58.10;;;;;;20758623;28;20043;-62
2021/04/09 18:10:24;;;;;;;9.23;6.90;;;15.10;58.80;;;;;;20755058;28;20057;-62
2021/04/09 18:20:25;;;;;;;12.02;7.13;;;15.00;59.50;;;;;;20753794;28;20459;-62
2021/04/09 18:30:26;;;;;;;11.70;6.82;;;14.80;59.90;;;;;;20756064;28;20030;-63
2021/04/09 18:40:27;;;;;;;9.43;5.70;;;14.70;60.80;;;;;;20754754;28;20037;-63
2021/04/09 18:50:28;;;;;;;9.68;5.68;;;14.50;61.10;;;;;;20753827;28;20061;-63
2021/04/09 19:00:29;;;;;;;8.73;5.80;;;14.50;61.20;;;;;;20754118;28;20045;-62
2021/04/09 19:10:30;;;;;;;9.40;6.18;;;14.40;61.40;;;;;;20753751;28;20033;-64
2021/04/09 19:20:31;;;;;;;10.18;5.70;;;14.40;61.60;;;;;;20752568;28;20034;-62
2021/04/09 19:30:34;;;;;;;7.78;5.50;;;14.40;61.40;;;;;;20752526;28;20180;-62
2021/04/09 19:40:34;;;;;;;10.27;5.53;;;14.40;61.10;;;;;;20750553;28;20037;-62
2021/04/09 19:50:36;;;;;;;10.90;5.40;;;14.30;61.10;;;;;;20748983;28;20058;-61
2021/04/09 20:00:37;;;;;;;7.95;5.57;;;14.30;61.20;;;;;;20748747;28;20137;-61
2021/04/09 20:10:39;;;;;;;11.05;6.72;;;14.30;61.10;;;;;;20747245;28;20410;-63
2021/04/09 20:20:39;;;;;;;7.25;5.22;;;14.80;59.50;;;;;;20748109;28;20034;-64
2021/04/09 20:30:40;;;;;;;11.13;7.53;;;14.50;60.00;;;;;;20748162;28;20394;-63
2021/04/09 20:40:41;;;;;;;11.85;5.60;;;14.40;60.60;;;;;;20745416;28;20434;-63
2021/04/09 20:50:42;;;;;;;7.88;5.00;;;14.30;61.30;;;;;;20746286;28;20029;-63
2021/04/09 21:00:42;;;;;;;16.55;9.10;;;14.20;61.20;;;;;;20754211;28;20045;-61
2021/04/09 21:10:43;;;;;;;12.77;8.35;;;14.20;61.60;;;;;;20760377;28;20030;-63
2021/04/09 21:20:44;;;;;;;19.73;12.55;;;14.10;62.00;;;;;;20759460;28;20120;-60
2021/04/09 21:30:45;;;;;;;10.10;6.30;;;14.00;62.20;;;;;;20759471;28;20106;-65
2021/04/09 21:40:46;;;;;;;8.52;6.15;;;14.00;62.30;;;;;;20757829;28;20120;-60
2021/04/09 21:50:47;;;;;;;10.35;6.85;;;13.90;62.10;;;;;;20756635;28;20018;-59
2021/04/09 22:00:47;;;;;;;10.07;6.70;;;13.80;62.30;;;;;;20755987;28;20049;-64
2021/04/09 22:10:48;;;;;;;11.18;6.57;;;13.70;62.40;;;;;;20753569;28;20025;-64
2021/04/09 22:20:49;;;;;;;10.23;5.63;;;13.70;62.20;;;;;;20754524;28;20137;-65
2021/04/09 22:30:50;;;;;;;9.32;5.97;;;13.80;62.10;;;;;;20754404;28;20022;-64
2021/04/09 22:40:51;;;;;;;9.85;5.07;;;13.90;61.90;;;;;;20753583;28;20042;-64
2021/04/09 22:50:51;;;;;;;10.63;5.10;;;13.90;61.70;;;;;;20750745;28;20056;-64
2021/04/09 23:00:52;;;;;;;14.40;6.32;;;13.90;61.10;;;;;;20751453;28;20137;-61
2021/04/09 23:10:53;;;;;;;9.90;6.47;;;13.90;61.60;;;;;;20751376;28;20073;-62
2021/04/09 23:20:54;;;;;;;10.20;7.18;;;13.80;62.10;;;;;;20751010;28;20076;-63
2021/04/09 23:30:55;;;;;;;8.43;6.32;;;13.80;62.60;;;;;;20750030;28;20022;-63
2021/04/09 23:40:56;;;;;;;12.65;6.68;;;13.80;63.00;;;;;;20749126;28;20048;-63
2021/04/09 23:50:56;;;;;;;10.32;6.22;;;13.90;63.30;;;;;;20748594;28;20018;-59
